createdAt,value
2023-07-26T00:01:05.046Z,13.49
2023-07-26T00:03:32.736Z,13.57
2023-07-26T00:06:01.829Z,13.69
2023-07-26T00:08:30.815Z,13.67
2023-07-26T00:11:00.650Z,13.72
2023-07-26T00:13:28.310Z,13.82
2023-07-26T00:15:55.948Z,13.82
2023-07-26T00:18:23.637Z,14.02
2023-07-26T00:20:51.307Z,13.87
2023-07-26T00:23:19.080Z,13.82
2023-07-26T00:25:48.049Z,13.60
2023-07-26T00:28:15.673Z,13.31
2023-07-26T00:30:45.189Z,13.61
2023-07-26T00:33:13.142Z,13.65
2023-07-26T00:35:42.068Z,13.59
2023-07-26T00:38:09.843Z,13.53
2023-07-26T00:40:37.520Z,13.45
2023-07-26T00:43:08.448Z,13.50
2023-07-26T00:45:38.092Z,13.65
2023-07-26T00:48:06.551Z,13.74
2023-07-26T00:50:34.874Z,13.77
2023-07-26T00:53:03.995Z,13.79
2023-07-26T00:55:31.739Z,13.76
2023-07-26T00:57:59.377Z,13.77
2023-07-26T01:00:28.845Z,13.82
2023-07-26T01:02:56.560Z,13.89
2023-07-26T01:05:26.799Z,13.81
2023-07-26T01:08:03.485Z,13.46
2023-07-26T01:10:37.522Z,13.47
2023-07-26T01:13:11.538Z,13.62
2023-07-26T01:15:43.426Z,13.69
2023-07-26T01:18:14.100Z,13.73
2023-07-26T01:20:42.290Z,13.79
2023-07-26T01:23:11.900Z,13.84
2023-07-26T01:25:39.589Z,13.62
2023-07-26T01:28:07.231Z,13.31
2023-07-26T01:30:35.586Z,13.39
2023-07-26T01:33:05.634Z,13.59
2023-07-26T01:35:33.616Z,13.59
2023-07-26T01:38:02.776Z,13.43
2023-07-26T01:40:31.751Z,13.53
2023-07-26T01:42:59.685Z,13.51
2023-07-26T01:45:29.496Z,13.42
2023-07-26T01:47:57.173Z,13.29
2023-07-26T01:50:25.276Z,13.38
2023-07-26T01:52:52.875Z,13.49
2023-07-26T01:55:20.592Z,13.37
2023-07-26T01:57:49.669Z,13.45
2023-07-26T02:00:18.490Z,13.73
2023-07-26T02:02:46.261Z,13.64
2023-07-26T02:05:13.912Z,13.66
2023-07-26T02:07:41.630Z,13.66
2023-07-26T02:10:09.860Z,13.22
2023-07-26T02:12:37.594Z,13.40
2023-07-26T02:15:10.787Z,13.54
2023-07-26T02:17:38.487Z,13.59
2023-07-26T02:20:07.369Z,13.59
2023-07-26T02:22:35.245Z,13.69
2023-07-26T02:25:02.955Z,13.52
2023-07-26T02:27:30.594Z,13.22
2023-07-26T02:30:00.061Z,13.09
2023-07-26T02:32:30.272Z,13.15
2023-07-26T02:34:58.199Z,13.23
2023-07-26T02:37:25.852Z,13.04
2023-07-26T02:39:53.873Z,13.09
2023-07-26T02:42:21.803Z,13.12
2023-07-26T02:44:49.824Z,13.16
2023-07-26T02:47:17.836Z,13.31
2023-07-26T02:49:46.900Z,13.31
2023-07-26T02:52:14.575Z,13.47
2023-07-26T02:54:42.438Z,13.27
2023-07-26T02:57:10.067Z,13.38
2023-07-26T02:59:37.707Z,13.24
2023-07-26T03:02:05.833Z,13.28
2023-07-26T03:04:33.902Z,13.14
2023-07-26T03:07:03.123Z,13.24
2023-07-26T03:09:30.748Z,13.40
2023-07-26T03:11:58.393Z,13.24
2023-07-26T03:14:26.020Z,13.30
2023-07-26T03:16:55.231Z,13.32
2023-07-26T03:19:23.122Z,13.17
2023-07-26T03:21:50.780Z,13.12
2023-07-26T03:24:19.746Z,13.14
2023-07-26T03:26:47.411Z,13.29
2023-07-26T03:29:15.151Z,13.19
2023-07-26T03:31:42.769Z,13.01
2023-07-26T03:34:10.415Z,12.95
2023-07-26T03:36:38.170Z,13.02
2023-07-26T03:39:05.964Z,13.01
2023-07-26T03:41:35.021Z,13.09
2023-07-26T03:44:02.690Z,13.03
2023-07-26T03:46:30.637Z,13.21
2023-07-26T03:48:58.450Z,13.19
2023-07-26T03:51:26.077Z,13.08
2023-07-26T03:53:54.297Z,13.15
2023-07-26T03:56:22.202Z,13.30
2023-07-26T03:58:51.135Z,13.33
2023-07-26T04:01:18.965Z,13.07
2023-07-26T04:03:46.720Z,13.03
2023-07-26T04:06:14.664Z,13.07
2023-07-26T04:08:42.522Z,12.99
2023-07-26T04:11:10.392Z,13.02
2023-07-26T04:13:38.008Z,13.15
2023-07-26T04:16:15.593Z,13.36
2023-07-26T04:18:43.308Z,13.43
2023-07-26T04:21:14.003Z,13.17
2023-07-26T04:23:41.697Z,13.24
2023-07-26T04:26:09.384Z,13.37
2023-07-26T04:28:37.076Z,13.55
2023-07-26T04:31:05.065Z,13.42
2023-07-26T04:33:34.170Z,13.26
2023-07-26T04:36:01.842Z,13.22
2023-07-26T04:38:29.529Z,13.33
2023-07-26T04:40:57.183Z,13.21
2023-07-26T04:43:24.866Z,13.07
2023-07-26T04:45:54.077Z,12.85
2023-07-26T04:48:22.387Z,13.08
2023-07-26T04:50:51.529Z,12.91
2023-07-26T04:53:19.287Z,12.82
2023-07-26T04:55:49.014Z,12.96
2023-07-26T04:58:16.946Z,13.07
2023-07-26T05:00:44.902Z,12.95
2023-07-26T05:03:12.703Z,13.03
2023-07-26T05:05:41.070Z,13.18
2023-07-26T05:08:10.375Z,13.09
2023-07-26T05:10:37.967Z,13.01
2023-07-26T05:13:05.588Z,13.02
2023-07-26T05:15:33.238Z,12.99
2023-07-26T05:18:00.933Z,13.01
2023-07-26T05:20:28.620Z,13.04
2023-07-26T05:22:56.256Z,12.91
2023-07-26T05:25:25.185Z,12.99
2023-07-26T05:27:55.017Z,13.12
2023-07-26T05:30:22.645Z,13.18
2023-07-26T05:32:50.422Z,12.92
2023-07-26T05:35:18.256Z,13.08
2023-07-26T05:37:45.909Z,12.96
2023-07-26T05:40:13.862Z,13.13
2023-07-26T05:42:42.824Z,13.22
2023-07-26T05:45:11.387Z,13.22
2023-07-26T05:47:39.983Z,13.29
2023-07-26T05:50:08.404Z,13.38
2023-07-26T05:52:36.130Z,13.41
2023-07-26T05:55:03.820Z,13.45
2023-07-26T05:57:31.497Z,13.28
2023-07-26T06:00:00.561Z,13.41
2023-07-26T06:02:28.175Z,13.45
2023-07-26T06:04:55.803Z,13.66
2023-07-26T06:07:23.374Z,13.66
2023-07-26T06:09:51.006Z,13.59
2023-07-26T06:12:18.588Z,13.73
2023-07-26T06:14:46.185Z,13.66
2023-07-26T06:17:15.147Z,13.53
2023-07-26T06:19:42.810Z,13.86
2023-07-26T06:22:13.367Z,13.81
2023-07-26T06:24:41.109Z,13.96
2023-07-26T06:27:08.764Z,13.86
2023-07-26T06:29:38.375Z,13.76
2023-07-26T06:32:06.904Z,13.74
2023-07-26T06:34:35.985Z,13.81
2023-07-26T06:37:03.682Z,13.69
2023-07-26T06:39:31.330Z,13.78
2023-07-26T06:41:58.940Z,13.89
2023-07-26T06:44:26.576Z,14.07
2023-07-26T06:46:54.212Z,14.09
2023-07-26T06:49:21.826Z,14.12
2023-07-26T06:51:53.269Z,14.08
2023-07-26T06:54:20.934Z,14.15
2023-07-26T06:56:49.512Z,14.10
2023-07-26T06:59:18.117Z,14.23
2023-07-26T07:01:45.865Z,14.38
2023-07-26T07:04:15.317Z,14.49
2023-07-26T07:06:43.660Z,14.69
2023-07-26T07:09:13.303Z,14.76
2023-07-26T07:11:41.029Z,14.87
2023-07-26T07:14:10.869Z,15.05
2023-07-26T07:16:39.119Z,15.03
2023-07-26T07:19:06.774Z,14.90
2023-07-26T07:21:34.773Z,14.92
2023-07-26T07:24:02.981Z,15.03
2023-07-26T07:26:31.985Z,14.91
2023-07-26T07:28:59.654Z,15.00
2023-07-26T07:31:27.304Z,15.09
2023-07-26T07:33:54.993Z,15.22
2023-07-26T07:36:22.638Z,15.38
2023-07-26T07:38:50.253Z,15.23
2023-07-26T07:41:17.888Z,15.47
2023-07-26T07:43:46.836Z,15.56
2023-07-26T07:46:14.531Z,15.64
2023-07-26T07:48:42.419Z,15.53
2023-07-26T07:51:10.134Z,15.72
2023-07-26T07:53:37.869Z,15.74
2023-07-26T07:56:05.667Z,15.98
2023-07-26T07:58:33.300Z,16.18
2023-07-26T08:01:02.321Z,16.07
2023-07-26T08:03:30.532Z,15.95
2023-07-26T08:05:58.374Z,15.79
2023-07-26T08:08:26.091Z,15.88
2023-07-26T08:10:53.852Z,15.90
2023-07-26T08:13:21.556Z,15.95
2023-07-26T08:15:49.275Z,15.88
2023-07-26T08:18:18.369Z,16.09
2023-07-26T08:20:46.027Z,16.06
2023-07-26T08:23:14.102Z,16.11
2023-07-26T08:25:41.771Z,16.31
2023-07-26T08:28:09.477Z,16.06
2023-07-26T08:30:37.723Z,16.01
2023-07-26T08:33:05.683Z,16.03
2023-07-26T08:35:34.801Z,16.39
2023-07-26T08:38:02.438Z,16.57
2023-07-26T08:40:30.096Z,16.26
2023-07-26T08:42:58.428Z,16.35
2023-07-26T08:45:27.962Z,16.39
2023-07-26T08:47:56.527Z,16.39
2023-07-26T08:50:24.751Z,16.32
2023-07-26T08:52:53.746Z,16.41
2023-07-26T08:55:21.403Z,16.10
2023-07-26T08:57:49.065Z,15.99
2023-07-26T09:00:17.140Z,15.84
2023-07-26T09:02:47.419Z,15.84
2023-07-26T09:05:15.115Z,16.03
2023-07-26T09:07:42.872Z,16.28
2023-07-26T09:10:11.860Z,16.31
2023-07-26T09:12:39.562Z,16.54
2023-07-26T09:15:08.193Z,16.28
2023-07-26T09:17:38.822Z,16.03
2023-07-26T09:20:08.521Z,16.30
2023-07-26T09:22:36.198Z,16.61
2023-07-26T09:25:04.021Z,16.86
2023-07-26T09:27:33.125Z,16.75
2023-07-26T09:30:00.769Z,16.67
2023-07-26T09:32:30.018Z,16.78
2023-07-26T09:35:00.829Z,17.05
2023-07-26T09:37:29.114Z,17.16
2023-07-26T09:39:57.040Z,17.11
2023-07-26T09:42:24.792Z,17.11
2023-07-26T09:45:00.024Z,16.99
2023-07-26T09:52:40.805Z,16.80
2023-07-26T09:55:10.419Z,16.88
2023-07-26T09:57:39.608Z,16.95
2023-07-26T10:00:12.382Z,16.67
2023-07-26T10:02:40.819Z,16.48
2023-07-26T10:05:09.998Z,16.73
2023-07-26T10:07:38.111Z,16.95
2023-07-26T10:10:07.553Z,16.86
2023-07-26T10:12:35.821Z,16.81
2023-07-26T10:15:05.720Z,16.84
2023-07-26T10:17:34.963Z,17.04
2023-07-26T10:20:03.589Z,16.80
2023-07-26T10:22:31.735Z,16.89
2023-07-26T10:25:00.390Z,16.92
2023-07-26T10:27:28.322Z,16.99
2023-07-26T10:29:56.137Z,16.91
2023-07-26T10:32:24.676Z,17.01
2023-07-26T10:34:57.691Z,16.97
2023-07-26T10:37:33.269Z,17.29
2023-07-26T10:40:01.290Z,17.23
2023-07-26T10:42:30.443Z,16.98
2023-07-26T10:45:00.497Z,17.38
2023-07-26T10:47:28.707Z,17.46
2023-07-26T10:50:07.829Z,17.58
2023-07-26T10:52:37.040Z,17.56
2023-07-26T10:55:21.359Z,17.46
2023-07-26T10:57:49.318Z,17.44
2023-07-26T11:00:23.904Z,17.61
2023-07-26T11:02:52.422Z,17.65
2023-07-26T11:05:22.398Z,17.68
2023-07-26T11:07:50.409Z,17.62
2023-07-26T11:10:18.926Z,17.70
2023-07-26T11:12:47.067Z,17.74
2023-07-26T11:16:12.950Z,17.79
2023-07-26T11:18:02.409Z,17.81
2023-07-26T11:20:31.477Z,17.93
2023-07-26T11:22:59.297Z,18.34
2023-07-26T11:25:27.109Z,18.62
2023-07-26T11:27:55.407Z,18.45
2023-07-26T11:30:23.026Z,18.86
2023-07-26T11:32:51.887Z,18.96
2023-07-26T11:35:23.608Z,19.14
2023-07-26T11:37:54.879Z,19.28
2023-07-26T11:40:22.830Z,19.22
2023-07-26T11:42:51.542Z,19.03
2023-07-26T11:45:19.281Z,18.60
2023-07-26T11:47:47.258Z,18.68
2023-07-26T11:50:19.725Z,18.94
2023-07-26T11:52:49.702Z,19.21
2023-07-26T11:55:18.631Z,19.17
2023-07-26T11:57:46.550Z,18.76
2023-07-26T12:00:15.072Z,18.91
2023-07-26T12:02:42.820Z,19.05
2023-07-26T12:05:17.705Z,19.41
2023-07-26T12:07:46.589Z,19.26
2023-07-26T12:10:14.377Z,19.51
2023-07-26T12:12:44.335Z,19.06
2023-07-26T12:15:12.784Z,19.03
2023-07-26T12:18:06.969Z,18.84
2023-07-26T12:20:45.595Z,19.06
2023-07-26T12:23:22.955Z,19.23
2023-07-26T12:25:53.801Z,19.24
2023-07-26T12:28:22.781Z,19.33
2023-07-26T12:30:54.654Z,19.65
2023-07-26T12:33:22.702Z,19.79
2023-07-26T12:35:53.619Z,19.83
2023-07-26T12:38:22.937Z,19.91
2023-07-26T12:40:51.696Z,19.72
2023-07-26T12:43:25.884Z,19.35
2023-07-26T12:45:54.042Z,18.89
2023-07-26T12:48:22.097Z,18.88
2023-07-26T12:50:51.316Z,18.66
2023-07-26T12:53:19.236Z,18.47
2023-07-26T12:55:46.867Z,18.45
2023-07-26T12:58:14.903Z,18.44
2023-07-26T13:00:44.528Z,18.46
2023-07-26T13:03:25.701Z,18.51
2023-07-26T13:05:53.498Z,18.57
2023-07-26T13:08:21.164Z,18.60
2023-07-26T13:10:48.776Z,18.59
2023-07-26T13:13:16.389Z,18.07
2023-07-26T13:15:45.414Z,18.08
2023-07-26T13:18:13.107Z,18.00
2023-07-26T13:20:40.770Z,18.06
2023-07-26T13:23:08.608Z,17.98
2023-07-26T13:25:36.270Z,17.98
2023-07-26T13:28:04.102Z,18.09
2023-07-26T13:30:31.843Z,18.19
2023-07-26T13:33:00.927Z,18.22
2023-07-26T13:35:29.249Z,18.10
2023-07-26T13:37:57.028Z,17.92
2023-07-26T13:40:24.736Z,17.89
2023-07-26T13:42:55.050Z,17.85
2023-07-26T13:45:22.929Z,17.97
2023-07-26T13:47:53.060Z,17.96
2023-07-26T13:50:22.184Z,17.72
2023-07-26T13:52:49.933Z,17.66
2023-07-26T13:55:17.589Z,17.84
2023-07-26T13:57:45.589Z,17.76
2023-07-26T14:00:14.306Z,17.71
2023-07-26T14:02:42.007Z,17.56
2023-07-26T14:05:09.796Z,17.58
2023-07-26T14:07:38.757Z,17.60
2023-07-26T14:10:07.714Z,17.73
2023-07-26T14:12:35.391Z,17.74
2023-07-26T14:15:03.025Z,17.74
2023-07-26T14:17:31.002Z,17.61
2023-07-26T14:19:58.697Z,17.69
2023-07-26T14:22:26.291Z,17.82
2023-07-26T14:24:55.294Z,18.06
2023-07-26T14:27:22.990Z,18.14
2023-07-26T14:29:50.605Z,18.34
2023-07-26T14:32:18.323Z,18.44
2023-07-26T14:34:46.361Z,18.64
2023-07-26T14:37:14.021Z,18.68
2023-07-26T14:39:41.664Z,18.87
2023-07-26T14:42:11.012Z,18.65
2023-07-26T14:44:38.672Z,18.89
2023-07-26T14:47:07.465Z,19.11
2023-07-26T14:49:37.610Z,18.93
2023-07-26T14:52:07.948Z,18.93
2023-07-26T14:54:35.548Z,18.88
2023-07-26T14:57:11.190Z,18.85
2023-07-26T14:59:42.864Z,18.58
2023-07-26T15:02:10.681Z,18.63
2023-07-26T15:04:38.540Z,18.78
2023-07-26T15:07:07.002Z,18.67
2023-07-26T15:09:34.771Z,18.89
2023-07-26T15:12:02.507Z,19.12
2023-07-26T15:14:30.209Z,19.11
2023-07-26T15:16:59.345Z,19.00
2023-07-26T15:19:27.090Z,18.50
2023-07-26T15:21:54.816Z,18.31
2023-07-26T15:24:22.613Z,18.44
2023-07-26T15:26:50.326Z,18.68
2023-07-26T15:29:18.021Z,18.62
2023-07-26T15:31:45.720Z,18.45
2023-07-26T15:34:14.759Z,18.34
2023-07-26T15:36:44.045Z,18.42
2023-07-26T15:39:11.706Z,18.27
2023-07-26T15:44:13.030Z,18.00
2023-07-26T15:46:43.882Z,18.11
2023-07-26T15:51:46.048Z,17.88
2023-07-26T15:54:13.842Z,18.13
2023-07-26T15:56:41.964Z,18.08
2023-07-26T15:59:09.717Z,18.04
2023-07-26T16:01:37.795Z,18.07
2023-07-26T16:04:26.425Z,18.07
2023-07-26T16:09:28.744Z,18.27
2023-07-26T16:22:01.178Z,17.87
2023-07-26T16:24:29.325Z,17.88
2023-07-26T16:26:57.107Z,17.77
2023-07-26T16:29:24.918Z,17.67
2023-07-26T16:31:52.851Z,17.61
2023-07-26T16:34:20.676Z,17.77
2023-07-26T16:36:48.467Z,17.87
2023-07-26T16:39:17.498Z,17.80
2023-07-26T16:41:45.659Z,17.80
2023-07-26T16:44:13.578Z,17.79
2023-07-26T16:47:05.293Z,17.81
2023-07-26T16:49:28.967Z,17.72
2023-07-26T16:51:57.148Z,17.65
2023-07-26T16:54:26.253Z,17.66
2023-07-26T16:56:54.299Z,17.73
2023-07-26T16:59:22.197Z,17.67
2023-07-26T17:01:50.018Z,17.69
2023-07-26T17:04:17.950Z,17.67
2023-07-26T17:06:45.666Z,17.59
2023-07-26T17:09:13.702Z,17.52
2023-07-26T17:11:42.666Z,17.59
2023-07-26T17:14:10.521Z,17.61
2023-07-26T17:16:38.337Z,17.66
2023-07-26T17:19:06.589Z,17.66
2023-07-26T17:21:34.453Z,17.71
2023-07-26T17:24:02.200Z,17.63
2023-07-26T17:26:31.810Z,17.67
2023-07-26T17:29:01.230Z,17.77
2023-07-26T17:31:29.594Z,17.65
2023-07-26T17:33:57.402Z,17.52
2023-07-26T17:36:25.560Z,17.48
2023-07-26T17:38:53.498Z,17.40
2023-07-26T17:41:21.271Z,17.39
2023-07-26T17:43:49.565Z,17.25
2023-07-26T17:46:18.800Z,17.07
2023-07-26T17:48:47.501Z,17.05
2023-07-26T17:51:15.146Z,17.00
2023-07-26T17:53:42.769Z,17.09
2023-07-26T17:56:10.408Z,17.05
2023-07-26T17:58:38.108Z,17.02
2023-07-26T18:01:06.528Z,16.98
2023-07-26T18:03:35.485Z,16.97
2023-07-26T18:06:04.448Z,16.94
2023-07-26T18:08:34.394Z,16.93
2023-07-26T18:11:02.293Z,16.97
2023-07-26T18:13:32.297Z,16.98
2023-07-26T18:16:04.232Z,16.98
2023-07-26T18:18:32.792Z,16.83
2023-07-26T18:21:04.712Z,16.85
2023-07-26T18:23:32.541Z,16.83
2023-07-26T18:26:00.921Z,16.83
2023-07-26T18:28:28.642Z,16.74
2023-07-26T18:31:02.370Z,16.76
2023-07-26T18:33:30.164Z,16.62
2023-07-26T18:35:57.844Z,16.64
2023-07-26T18:38:27.267Z,16.44
2023-07-26T18:40:55.065Z,16.39
2023-07-26T18:43:23.149Z,16.31
2023-07-26T18:45:50.800Z,16.19
2023-07-26T18:48:20.760Z,16.21
2023-07-26T18:50:48.570Z,16.24
2023-07-26T18:53:17.015Z,16.29
2023-07-26T18:55:47.051Z,16.31
2023-07-26T18:58:14.825Z,16.27
2023-07-26T19:00:42.513Z,16.21
2023-07-26T19:03:10.256Z,16.22
2023-07-26T19:05:39.742Z,16.27
2023-07-26T19:08:07.724Z,16.26
2023-07-26T19:10:39.514Z,16.37
2023-07-26T19:13:09.018Z,16.34
2023-07-26T19:15:36.997Z,16.33
2023-07-26T19:18:04.971Z,16.34
2023-07-26T19:20:32.824Z,16.34
2023-07-26T19:23:03.347Z,16.27
2023-07-26T19:25:32.729Z,16.27
2023-07-26T19:28:00.482Z,16.25
2023-07-26T19:30:31.114Z,16.14
2023-07-26T19:32:59.383Z,16.07
2023-07-26T19:35:29.568Z,16.02
2023-07-26T19:38:00.387Z,15.93
2023-07-26T19:40:28.462Z,15.79
2023-07-26T19:42:56.217Z,15.68
2023-07-26T19:45:24.604Z,15.64
2023-07-26T19:47:53.712Z,15.66
2023-07-26T19:50:22.652Z,15.66
2023-07-26T19:52:50.350Z,15.69
2023-07-26T19:55:18.327Z,15.63
2023-07-26T19:57:46.978Z,15.54
2023-07-26T20:00:15.669Z,15.54
2023-07-26T20:02:45.781Z,15.40
2023-07-26T20:05:15.261Z,15.28
2023-07-26T20:07:42.874Z,15.21
2023-07-26T20:10:10.723Z,15.19
2023-07-26T20:12:38.332Z,15.11
2023-07-26T20:15:07.116Z,15.04
2023-07-26T20:17:34.800Z,14.98
2023-07-26T20:20:02.630Z,14.96
2023-07-26T20:22:31.618Z,14.82
2023-07-26T20:24:59.327Z,14.77
2023-07-26T20:27:28.579Z,14.77
2023-07-26T20:29:56.592Z,14.79
2023-07-26T20:32:24.338Z,14.78
2023-07-26T20:34:52.577Z,14.75
2023-07-26T20:37:22.105Z,14.69
2023-07-26T20:39:51.194Z,14.64
2023-07-26T20:42:19.181Z,14.68
2023-07-26T20:44:46.881Z,14.68
2023-07-26T20:47:17.044Z,14.77
2023-07-26T20:49:45.022Z,14.74
2023-07-26T20:52:12.911Z,14.71
2023-07-26T20:54:40.627Z,14.58
2023-07-26T20:57:09.803Z,14.61
2023-07-26T20:59:40.521Z,14.68
2023-07-26T21:02:08.450Z,14.71
2023-07-26T21:04:36.333Z,14.56
2023-07-26T21:07:04.275Z,14.40
2023-07-26T21:09:31.910Z,14.39
2023-07-26T21:11:59.509Z,14.34
2023-07-26T21:14:28.563Z,14.38
2023-07-26T21:16:56.233Z,14.32
2023-07-26T21:19:26.537Z,14.35
2023-07-26T21:21:54.191Z,14.36
2023-07-26T21:24:21.855Z,14.19
2023-07-26T21:26:49.539Z,14.19
2023-07-26T21:29:17.128Z,14.18
2023-07-26T21:31:46.125Z,14.17
2023-07-26T21:34:13.818Z,14.16
2023-07-26T21:36:41.527Z,14.17
2023-07-26T21:39:10.713Z,14.08
2023-07-26T21:41:38.409Z,14.15
2023-07-26T21:44:06.311Z,14.16
2023-07-26T21:46:34.327Z,14.05
2023-07-26T21:49:03.577Z,13.95
2023-07-26T21:51:31.203Z,13.87
2023-07-26T21:53:58.816Z,13.85
2023-07-26T21:56:27.538Z,13.76
2023-07-26T21:58:55.317Z,13.77
2023-07-26T22:01:23.006Z,13.79
2023-07-26T22:03:53.015Z,13.79
2023-07-26T22:06:22.113Z,13.81
2023-07-26T22:08:49.820Z,13.75
2023-07-26T22:11:17.512Z,13.62
2023-07-26T22:13:45.191Z,13.73
2023-07-26T22:16:12.833Z,13.87
2023-07-26T22:18:40.475Z,13.86
2023-07-26T22:21:16.304Z,13.82
2023-07-26T22:23:46.310Z,13.84
2023-07-26T22:26:16.750Z,13.83
2023-07-26T22:28:45.924Z,13.83
2023-07-26T22:31:13.696Z,13.76
2023-07-26T22:33:41.425Z,13.85
2023-07-26T22:36:10.078Z,13.90
2023-07-26T22:38:37.729Z,13.96
2023-07-26T22:41:08.106Z,13.90
2023-07-26T22:43:35.812Z,13.75
2023-07-26T22:46:04.685Z,13.56
2023-07-26T22:48:32.613Z,13.60
2023-07-26T22:51:00.240Z,13.67
2023-07-26T22:53:27.849Z,13.70
2023-07-26T22:55:55.696Z,13.69
2023-07-26T22:58:24.643Z,13.66
2023-07-26T23:01:00.128Z,13.77
2023-07-26T23:03:27.922Z,13.75
2023-07-26T23:05:58.839Z,13.77
2023-07-26T23:08:25.717Z,13.84
2023-07-26T23:10:58.694Z,13.76
2023-07-26T23:13:28.078Z,13.83
2023-07-26T23:15:56.042Z,13.84
2023-07-26T23:18:27.638Z,13.74
2023-07-26T23:20:55.621Z,13.68
2023-07-26T23:23:24.775Z,13.69
2023-07-26T23:25:52.629Z,13.65
2023-07-26T23:28:20.446Z,13.66
2023-07-26T23:30:50.338Z,13.70
2023-07-26T23:33:18.557Z,13.64
2023-07-26T23:35:46.472Z,13.65
2023-07-26T23:38:14.608Z,13.59
2023-07-26T23:40:42.682Z,13.54
2023-07-26T23:43:10.978Z,13.59
2023-07-26T23:45:38.632Z,13.65
2023-07-26T23:48:08.037Z,13.65
2023-07-26T23:50:35.639Z,13.54
2023-07-26T23:53:03.676Z,13.53
2023-07-26T23:55:31.326Z,13.62
2023-07-26T23:57:59.004Z,13.64
